M I D A S
Marine Information and Data Acquisition System
Tripno 449 of the Zeeleeuw from 2003-03-20 08:16:18 to 2003-03-20 15:41:04
Back to CruiseResearch ActivitiesStationsMapUnderway DataData graphs

EquipmentUnitsComment
TimeDGPSUTC
LatitudeDGPSDM.mWGS84
LongitudeDGPSDM.mWGS84
HeadingGyrodeg 
SOGDGPSknotsSpeed over ground
COGDGPSdegCourse over ground
DepthEcho soundermeters200 kHz
Missing or incorrect values are displayed as -999
Navigation data collected by the RV Zeeleeuw from 2003-03-20 08:16:18 to 2003-03-20 15:41:04
Time Latitude Longitude Heading SOG COG Depth
2003-03-20 08:17:23 51°13.857 2°55.619 338.2 5.9 333 7.9
2003-03-20 08:18:22 51°13.965 2°55.539 341.3 8 336 7.9
2003-03-20 08:19:22 51°14.091 2°55.447 339.6 8.5 334 7.8
2003-03-20 08:20:22 51°14.216 2°55.334 328 8.5 324 7.4
2003-03-20 08:21:23 51°14.316 2°55.166 314.2 9.1 309 8.1
2003-03-20 08:22:23 51°14.427 2°54.968 320.7 10.7 312 8.4
2003-03-20 08:23:22 51°14.57 2°54.786 335.3 11.5 323 5.6
2003-03-20 08:24:23 51°14.736 2°54.611 342.4 12 330 11.3
2003-03-20 08:25:23 51°14.915 2°54.45 337.9 12.5 329 -999
2003-03-20 08:26:23 51°15.084 2°54.279 338.6 11.9 328 9
2003-03-20 08:27:22 51°15.254 2°54.113 337.6 12.5 327 7.1
2003-03-20 08:28:23 51°15.445 2°53.946 344.7 13 332 7.8
2003-03-20 08:29:21 51°15.634 2°53.794 343.8 13.5 331 8.6
2003-03-20 08:30:23 51°15.84 2°53.614 344 13.8 331 9.4
2003-03-20 08:31:22 51°16.039 2°53.443 343.2 13.7 331 9.9
2003-03-20 08:32:23 51°16.242 2°53.262 342.2 13.8 330 10.4
2003-03-20 08:33:23 51°16.439 2°53.094 342.3 13.5 332 10.3
2003-03-20 08:34:22 51°16.634 2°52.938 342.1 13.3 333 9.5
2003-03-20 08:35:23 51°16.83 2°52.784 342.6 12.3 334 7.6
2003-03-20 08:36:23 51°17.015 2°52.645 343.9 12.7 334 8.2
2003-03-20 08:37:23 51°17.213 2°52.582 5 12 357 7.8
2003-03-20 08:38:23 51°17.415 2°52.55 1.3 12.3 352 8.2
2003-03-20 08:39:23 51°17.621 2°52.519 1.4 12.4 352 8.4
2003-03-20 08:40:23 51°17.826 2°52.505 8.2 12.3   8.5
2003-03-20 08:41:23 51°18.012 2°52.604 39.7 12.1 34 8.8
2003-03-20 08:42:23 51°18.153 2°52.828 54.7 12.1 52 8.9
2003-03-20 08:43:22 51°18.278 2°53.076 54.8 12.1 51 9.1
2003-03-20 08:44:23 51°18.406 2°53.331 55.1 12 51 9.2
2003-03-20 08:45:23 51°18.532 2°53.577 54.9 11.9 51 9.4
2003-03-20 08:46:22 51°18.64 2°53.835 64.7 11.9 62 9.5
2003-03-20 08:47:23 51°18.727 2°54.121 65.9 11.8 64 9.6
2003-03-20 08:48:23 51°18.817 2°54.399 65.9 11.9 63 9.6
2003-03-20 08:49:23 51°18.906 2°54.682 65.2 11.9 63 9.6
2003-03-20 08:50:21 51°18.993 2°54.957 65.4 12 63 9.7
2003-03-20 08:51:23 51°19.086 2°55.247 65.8 11.9 64 9.7
2003-03-20 08:52:22 51°19.174 2°55.522 65.7 11.8 63 9.7
2003-03-20 08:53:23 51°19.269 2°55.806 65.4 11.7 63 9.7
2003-03-20 08:54:23 51°19.358 2°56.079 65.6 11.6 62 9.6
2003-03-20 08:55:23 51°19.448 2°56.354 65.3 11.7 62 9.6
2003-03-20 08:56:23 51°19.531 2°56.634 68.8 11.6 66 9.5
2003-03-20 08:57:23 51°19.612 2°56.911 68.6 11.5 66 9.4
2003-03-20 08:58:23 51°19.69 2°57.187 68.2 11.4 65 9.3
2003-03-20 08:59:23 51°19.77 2°57.462 68.4 11.5 66 9.3
2003-03-20 09:00:23 51°19.851 2°57.739 67.9 11.6 65 9.2
2003-03-20 09:01:23 51°19.931 2°58.017 68.2 11.5 65 9.1
2003-03-20 09:02:23 51°20.012 2°58.295 68.3 11.6 65 8.6
2003-03-20 09:03:23 51°20.093 2°58.576 68.4 11.7 65 9
2003-03-20 09:04:23 51°20.176 2°58.86 68.4 11.8 65 9.1
2003-03-20 09:05:23 51°20.26 2°59.143 68.5 11.8 65 9.1
2003-03-20 09:06:23 51°20.344 2°59.424 68.2 11.6 64 9
2003-03-20 09:07:23 51°20.426 2°59.703 68.3 11.6 65 9
2003-03-20 09:08:23 51°20.51 2°59.983 68 11.7 65 9
2003-03-20 09:09:23 51°20.59 3°0.266 68.2 11.7 66 8.8
2003-03-20 09:10:23 51°20.67 3°0.551 68 11.7 66 9
2003-03-20 09:11:23 51°20.749 3°0.836 67.5 11.8 66 8.9
2003-03-20 09:12:23 51°20.821 3°1.13 70 11.8 69 8.9
2003-03-20 09:13:23 51°20.894 3°1.422 70.3 11.9 69 8.9
2003-03-20 09:14:23 51°20.965 3°1.718 70 11.9 69 9
2003-03-20 09:15:23 51°21.038 3°2.014 70.2 12 68 9.2
2003-03-20 09:16:23 51°21.113 3°2.312 70.8 12.1 69 9.3
2003-03-20 09:17:23 51°21.189 3°2.613 70.7 12.2 68 9.4
2003-03-20 09:18:22 51°21.267 3°2.909 70.2 12.3 68 9.6
2003-03-20 09:19:23 51°21.347 3°3.215 70.4 12.3 68 9.7
2003-03-20 09:20:22 51°21.425 3°3.512 70.6 12.4 68 9.8
2003-03-20 09:21:23 51°21.505 3°3.821 70.4 12.4 68 9.8
2003-03-20 09:22:23 51°21.582 3°4.125 72.3 12.4 70 9.9
2003-03-20 09:23:22 51°21.652 3°4.429 72.2 12.4 70 9.9
2003-03-20 09:24:23 51°21.725 3°4.745 72.2 12.4 70 10
2003-03-20 09:25:23 51°21.795 3°5.057 72.5 12.5 70 10.2
2003-03-20 09:26:23 51°21.867 3°5.371 73.1 12.7 70 10.2
2003-03-20 09:27:23 51°21.933 3°5.686 73.6 12.5 72 10.4
2003-03-20 09:28:23 51°22 3°6.001 73.3 12.6 71 10.5
2003-03-20 09:29:23 51°22.069 3°6.318 72.8 12.7 70 10.8
2003-03-20 09:30:23 51°22.138 3°6.634 73.1 12.6 71 11
2003-03-20 09:31:23 51°22.207 3°6.95 73.4 12.5 70 11
2003-03-20 09:32:23 51°22.276 3°7.264 73.3 12.5 71 11.2
2003-03-20 09:33:23 51°22.344 3°7.581 74 12.6 72 11.2
2003-03-20 09:34:22 51°22.409 3°7.893 73.3 12.6 71 11.3
2003-03-20 09:35:23 51°22.479 3°8.213 73.3 12.4 71 11.5
2003-03-20 09:36:23 51°22.545 3°8.523 73.3 12.2 71 11.6
2003-03-20 09:37:23 51°22.606 3°8.828 81.2 11.4 78 11.6
2003-03-20 09:38:23 51°22.629 3°9.087 86.8 9.2 86 12
2003-03-20 09:39:23 51°22.653 3°9.264 69.8 5.5 70 12.1
2003-03-20 09:40:23 51°22.673 3°9.372 81.5 3.6 82 12.2
2003-03-20 09:41:23 51°22.686 3°9.441 62.1 2.3 63 12.4
2003-03-20 09:42:23 51°22.7 3°9.472 52.8 0.9 45 12.3
2003-03-20 09:43:23 51°22.707 3°9.488 66.5 0.7 61 12.2
2003-03-20 09:44:23 51°22.71 3°9.5 62.5 0.4 62 12.2
2003-03-20 09:45:23 51°22.715 3°9.507 57.1 0.4 50 12.4
2003-03-20 09:46:23 51°22.719 3°9.514 64.5 0.3 24 12.1
2003-03-20 09:47:23 51°22.72 3°9.522 70.4 0.2 111 12.3
2003-03-20 09:48:23 51°22.719 3°9.524 64.8 0.1 165 12.4
2003-03-20 09:49:23 51°22.715 3°9.522 57.2 0.2 245 12.4
2003-03-20 09:50:22 51°22.715 3°9.517 45.3 0.3 276 12.4
2003-03-20 09:51:23 51°22.716 3°9.504 31.2 0.5 279 12.3
2003-03-20 09:52:23 51°22.719 3°9.495 39.9 0.3 306 12.2
2003-03-20 09:53:23 51°22.722 3°9.49 49.8 0.2 329 12.2
2003-03-20 09:54:23 51°22.725 3°9.487 47.1 0.3 342 12.3
2003-03-20 09:55:23 51°22.73 3°9.487 47.3 0.3 356 12.3
2003-03-20 09:56:23 51°22.736 3°9.487 48.5 0.3 357 12.3
2003-03-20 09:57:23 51°22.74 3°9.485 45.6 0.3 328 12.4
2003-03-20 09:58:23 51°22.743 3°9.479 42.2 0.3 311 12.5
2003-03-20 09:59:23 51°22.745 3°9.472 42.5 0.2 292 12.5
2003-03-20 10:00:23 51°22.746 3°9.465 47 0.3 281 12.5
2003-03-20 10:01:23 51°22.746 3°9.461 53.8 0.2 231 12.5
2003-03-20 10:02:23 51°22.742 3°9.459 64.1 0.4 182 12.2
2003-03-20 10:03:22 51°22.734 3°9.458 71.2 0.5 182 12.6
2003-03-20 10:04:23 51°22.726 3°9.458 75.6 0.5 180 12.4
2003-03-20 10:05:23 51°22.717 3°9.468 98 1 130 12.4
2003-03-20 10:06:23 51°22.698 3°9.486 128.4 1.5 157 12.4
2003-03-20 10:07:23 51°22.668 3°9.499 147.7 2 170 12.5
2003-03-20 10:08:23 51°22.632 3°9.501 164.7 2.4 182 12.5
2003-03-20 10:09:23 51°22.592 3°9.492 180.9 2.5 194 12.5
2003-03-20 10:10:23 51°22.552 3°9.468 195.1 2.6 203 12.6
2003-03-20 10:11:23 51°22.513 3°9.433 211.9 2.7 216 12.4
2003-03-20 10:12:23 51°22.48 3°9.383 230.6 2.8 228 12.4
2003-03-20 10:13:23 51°22.455 3°9.322 246 2.7 239 12.5
2003-03-20 10:14:23 51°22.436 3°9.256 262 2.7 250 12.4
2003-03-20 10:15:23 51°22.424 3°9.178 282.9 3.4 265 12.4
2003-03-20 10:16:22 51°22.45 3°9.085 321.2 4.7 305 12.4
2003-03-20 10:17:23 51°22.514 3°8.965 324.9 6.9 312 12.5
2003-03-20 10:18:23 51°22.614 3°8.823 333 8.3 322 12.1
2003-03-20 10:19:23 51°22.721 3°8.676 332.7 8.5 320 12.3
2003-03-20 10:20:23 51°22.837 3°8.534 336.4 9.6 324 12.3
2003-03-20 10:21:23 51°22.978 3°8.382 336.4 10.7 326 12
2003-03-20 10:22:23 51°23.159 3°8.226 348.7 12.8 340 11.3
2003-03-20 10:23:23 51°23.367 3°8.125 351.3 13.3 344 11.9
2003-03-20 10:24:23 51°23.581 3°8.013 345.4 13.7 338 16.9
2003-03-20 10:25:23 51°23.784 3°7.844 333.4 14 327 17.5
2003-03-20 10:26:23 51°23.967 3°7.615 321.1 15.1 316 18
2003-03-20 10:27:23 51°24.094 3°7.336 301.9 11.4 296 18.2
2003-03-20 10:28:23 51°24.148 3°7.081 298.5 9.5 289 17.3
2003-03-20 10:29:23 51°24.254 3°7.024 29 5.5 24 13.9
2003-03-20 10:30:23 51°24.266 3°7.057 85.9 1.1 105 13.8
2003-03-20 10:31:23 51°24.263 3°7.088 81.2 1.2 109 13.9
2003-03-20 10:32:23 51°24.256 3°7.107 74.9 0.7 117 14.1
2003-03-20 10:33:23 51°24.249 3°7.122 64.9 0.6 122 14
2003-03-20 10:34:23 51°24.245 3°7.134 57.3 0.5 126 14.2
2003-03-20 10:35:23 51°24.24 3°7.143 49 0.4 127 14.4
2003-03-20 10:36:23 51°24.237 3°7.149 39.9 0.3 138 14.4
2003-03-20 10:37:23 51°24.232 3°7.154 32.3 0.2 137 14.5
2003-03-20 10:38:23 51°24.228 3°7.157 24 0.2 156 14.5
2003-03-20 10:39:23 51°24.225 3°7.157 15.6 0.2 172 14.7
2003-03-20 10:40:23 51°24.222 3°7.159 7.7 0.2 173 14.8
2003-03-20 10:41:23 51°24.219 3°7.159 0.4 0.2 196 14.8
2003-03-20 10:42:23 51°24.216 3°7.158 353.2 0.1 177 15
2003-03-20 10:43:23 51°24.216 3°7.156 348.1 0.1 243 15
2003-03-20 10:44:23 51°24.214 3°7.153 341.9 0.2 248 15.1
2003-03-20 10:45:23 51°24.213 3°7.145 335.3 0.3 248 15.1
2003-03-20 10:46:23 51°24.212 3°7.137 328.8 0.4 250 15.1
2003-03-20 10:47:23 51°24.21 3°7.125 324.5 0.5 254 15.3
2003-03-20 10:48:23 51°24.209 3°7.113 332.5 0.5 274 15.2
2003-03-20 10:49:23 51°24.212 3°7.102 344.4 0.5 294 15.2
2003-03-20 10:50:25 51°24.216 3°7.09 342.1 0.5 305 15
2003-03-20 10:51:25 51°24.22 3°7.075 336.8 0.6 302 14.8
2003-03-20 10:52:25 51°24.226 3°7.06 332.9 0.7 298 14.7
2003-03-20 10:53:25 51°24.232 3°7.041 335.1 0.9 304 14.5
2003-03-20 10:54:25 51°24.244 3°7.022 344.5 1.1 322 14.4
2003-03-20 10:55:25 51°24.262 3°7.008 359 1.3 346 14.2
2003-03-20 10:56:25 51°24.281 3°7.008 13.4 1.4 7 13.7
2003-03-20 10:57:25 51°24.302 3°7.023 26.1 1.3 33 13.3
2003-03-20 10:58:25 51°24.317 3°7.045 35.6 1.2 51 13.1
2003-03-20 10:59:25 51°24.331 3°7.072 32.2 1.7 41 12.9
2003-03-20 11:00:25 51°24.374 3°7.093 11.9 3.9 8 12.3
2003-03-20 11:01:25 51°24.452 3°7.104 8.2 5.1 2 11.7
2003-03-20 11:02:25 51°24.551 3°7.126 14.1 6.9 9 11.3
2003-03-20 11:03:25 51°24.671 3°7.157 13.1 7.7 8 11
2003-03-20 11:04:25 51°24.797 3°7.189 13.3 7.7 9 10.7
2003-03-20 11:05:25 51°24.921 3°7.223 17 7.5 12 10.1
2003-03-20 11:06:25 51°25.046 3°7.276 18.7 8 15 9.2
2003-03-20 11:07:25 51°25.178 3°7.331 18.8 8.1 15 8.8
2003-03-20 11:08:25 51°25.305 3°7.39 20.8 8.1 17 9
2003-03-20 11:09:25 51°25.433 3°7.454 20.4 8.1 17 9.1
2003-03-20 11:10:25 51°25.562 3°7.516 20.3 8.1 17 9.4
2003-03-20 11:11:25 51°25.692 3°7.578 20.5 8.1 17 9.6
2003-03-20 11:12:25 51°25.822 3°7.638 20.7 8.2 17 9.7
2003-03-20 11:13:25 51°25.952 3°7.699 20 8.1 16 9.6
2003-03-20 11:14:25 51°26.081 3°7.762 20.5 8 17 9.4
2003-03-20 11:15:25 51°26.202 3°7.823 21.6 7.1 18 9.6
2003-03-20 11:16:25 51°26.307 3°7.879 21.4 6.6 19 9.9
2003-03-20 11:17:25 51°26.396 3°7.929 21 4.9 19 10.2
2003-03-20 11:18:25 51°26.459 3°7.966 21.4 3.7 21 10.4
2003-03-20 11:19:25 51°26.513 3°7.997 21.5 3.2 21 10.1
2003-03-20 11:20:25 51°26.562 3°8.029 21 3.1 21 10.4
2003-03-20 11:21:25 51°26.61 3°8.058 20.1 3.1 19 10.9
2003-03-20 11:22:25 51°26.658 3°8.085 19.9 3.1 19 11.3
2003-03-20 11:23:25 51°26.706 3°8.112 20.3 3.1 19 11.5
2003-03-20 11:24:25 51°26.754 3°8.141 20.1 3.2 19 11.8
2003-03-20 11:25:25 51°26.803 3°8.169 20.4 3.1 20 12.1
2003-03-20 11:26:25 51°26.851 3°8.197 19.7 3.1 19 12.1
2003-03-20 11:27:25 51°26.899 3°8.224 20.3 3.1 20 12.1
2003-03-20 11:28:25 51°26.948 3°8.252 20.6 3.1 21 12
2003-03-20 11:29:25 51°26.996 3°8.28 20.1 2.9 21 12
2003-03-20 11:30:25 51°27.044 3°8.308 20.3 3 20 12
2003-03-20 11:31:25 51°27.091 3°8.334 19.7 3 17 12.3
2003-03-20 11:32:25 51°27.136 3°8.363 21.8 3 22 12.4
2003-03-20 11:33:25 51°27.183 3°8.392 21 3 21 12.4
2003-03-20 11:34:25 51°27.23 3°8.42 21.7 3 22 12.4
2003-03-20 11:35:25 51°27.276 3°8.45 21.3 3 21 12.6
2003-03-20 11:36:25 51°27.324 3°8.479 21.1 3 21 12.5
2003-03-20 11:37:25 51°27.37 3°8.508 21.5 3 21 12.6
2003-03-20 11:38:25 51°27.418 3°8.536 21.3 3.2 21 13
2003-03-20 11:39:25 51°27.468 3°8.568 21 3.3 21 13.3
2003-03-20 11:40:25 51°27.52 3°8.599 21 3.4 21 13.3
2003-03-20 11:41:25 51°27.573 3°8.632 21.4 3.4 21 13.5
2003-03-20 11:42:25 51°27.626 3°8.664 21.5 3.4 22 13.5
2003-03-20 11:43:25 51°27.676 3°8.7 24.5 3.4 25 13.6
2003-03-20 11:44:25 51°27.725 3°8.749 34.3 3.6 39 13.7
2003-03-20 11:45:25 51°27.768 3°8.821 43.1 3.8 51 13.7
2003-03-20 11:46:25 51°27.818 3°8.895 28.8 4.5 33 13.6
2003-03-20 11:47:25 51°27.877 3°8.991 54 5.6 59 13.7
2003-03-20 11:48:25 51°27.935 3°9.106 42 5.7 46 13.8
2003-03-20 11:49:25 51°28.008 3°9.196 24.9 5.6 27 13.9
2003-03-20 11:50:25 51°28.095 3°9.206 348.1 5.2 342 14.2
2003-03-20 11:51:25 51°28.145 3°9.133 325.2 3.1 304 14.1
2003-03-20 11:52:25 51°28.134 3°9.11 298.8 1.2 206 14.3
2003-03-20 11:53:25 51°28.125 3°9.08 309.9 1.2 239 14.3
2003-03-20 11:54:25 51°28.115 3°9.058 323.8 0.9 235 14.3
2003-03-20 11:55:25 51°28.109 3°9.043 342.3 0.5 238 14.4
2003-03-20 11:56:25 51°28.103 3°9.038 359 0.3 192 14.5
2003-03-20 11:57:25 51°28.105 3°9.037 359.5 1.8 355 14.4
2003-03-20 11:58:25 51°28.174 3°9.035 2.9 4.9   14.4
2003-03-20 11:59:25 51°28.211 3°9.025 330.9 0.7 296 14.7
2003-03-20 12:00:25 51°28.206 3°9.006 313 0.8 240 14.6
2003-03-20 12:01:25 51°28.198 3°8.992 325.1 0.7 227 14.8
2003-03-20 12:02:25 51°28.189 3°8.982 337.6 0.5 209 14.7
2003-03-20 12:03:25 51°28.181 3°8.978 343.3 0.5 193 14.7
2003-03-20 12:04:25 51°28.172 3°8.977 342.4 0.5 190 14.7
2003-03-20 12:05:25 51°28.163 3°8.976 339.7 0.6 184 14.6
2003-03-20 12:06:25 51°28.154 3°8.976 341.8 0.5 179 14.7
2003-03-20 12:07:25 51°28.144 3°8.977 345.6 0.5 172 14.7
2003-03-20 12:08:25 51°28.135 3°8.981 350.8 0.6 165 14.8
2003-03-20 12:09:25 51°28.127 3°8.985 355.8 0.6 157 14.6
2003-03-20 12:10:25 51°28.117 3°8.993   0.6 148 14.7
2003-03-20 12:11:25 51°28.108 3°9.002 357.5 0.6 149 14.7
2003-03-20 12:12:25 51°28.1 3°9.011 349.3 0.6 151 14.9
2003-03-20 12:13:25 51°28.09 3°9.017 338.2 0.6 160 14.8
2003-03-20 12:14:25 51°28.083 3°9.02 335.1 0.1 238 14.9
2003-03-20 12:15:25 51°28.086 3°9.02 345.5 0.4 355 14.8
2003-03-20 12:16:25 51°28.103 3°9.02 355.4 1.3 7 14.9
2003-03-20 12:17:26 51°28.125 3°9.032 6.6 1.6 24 14.8
2003-03-20 12:18:25 51°28.146 3°9.056 17.8 1.6 44 15
2003-03-20 12:19:25 51°28.163 3°9.09 26 1.8 56 14.9
2003-03-20 12:20:25 51°28.178 3°9.132 33.8 1.9 63 14.9
2003-03-20 12:21:25 51°28.188 3°9.177 40 1.8 75 15
2003-03-20 12:22:25 51°28.191 3°9.222 47.7 1.7 89 15
2003-03-20 12:23:25 51°28.19 3°9.269 52.9 1.7 90 14.8
2003-03-20 12:24:25 51°28.255 3°9.307 343.5 6.2 345 14.9
2003-03-20 12:25:25 51°28.313 3°9.09 287.3 12.1 280 15.5
2003-03-20 12:26:25 51°28.347 3°8.753 286.6 12.9 279 15.7
2003-03-20 12:27:25 51°28.382 3°8.415 286.6 12.9 279 15
2003-03-20 12:28:25 51°28.41 3°8.076 285.2 12.9 277 15.3
2003-03-20 12:29:25 51°28.44 3°7.733 284.8 12.9 277 16.4
2003-03-20 12:30:25 51°28.468 3°7.393 285 13 278 16.9
2003-03-20 12:31:25 51°28.497 3°7.052 285.2 13 278 17.1
2003-03-20 12:32:25 51°28.513 3°6.706 280.9 13 274 17.5
2003-03-20 12:33:25 51°28.527 3°6.362 278.6 12.9 272 17.8
2003-03-20 12:34:25 51°28.526 3°6.019 275.3 12.9 269 17.5
2003-03-20 12:35:25 51°28.524 3°5.678 276 12.8 270 18.2
2003-03-20 12:36:26 51°28.526 3°5.332 276.4 12.7 271 18.7
2003-03-20 12:37:27 51°28.53 3°4.987 276.7 12.7 272 20.7
2003-03-20 12:38:26 51°28.534 3°4.655 276.1 12.8 272 22
2003-03-20 12:39:27 51°28.558 3°4.312 287.7 12.7 283 23.5
2003-03-20 12:40:27 51°28.593 3°4.074 276.4 8.1 273 24.6
2003-03-20 12:41:27 51°28.609 3°3.931 296.1 4.3 293 25.2
2003-03-20 12:42:27 51°28.642 3°3.864 307.7 2.9 314 25.4
2003-03-20 12:43:26 51°28.671 3°3.819 301 2.1 312 25.5
2003-03-20 12:44:26 51°28.682 3°3.813 299.5 0.5 52 25.7
2003-03-20 12:45:26 51°28.688 3°3.826 304.4 0.6 46 25.8
2003-03-20 12:46:26 51°28.695 3°3.841 306.8 0.8 54 25.8
2003-03-20 12:47:26 51°28.704 3°3.858 309.9 0.8 54 25.8
2003-03-20 12:48:26 51°28.711 3°3.879 311 0.9 54 25.7
2003-03-20 12:49:26 51°28.722 3°3.894 305.3 0.8 34 25.9
2003-03-20 12:50:26 51°28.732 3°3.903 295.5 0.6 21 25.9
2003-03-20 12:51:26 51°28.74 3°3.906 276.8 0.2 353 25.6
2003-03-20 12:52:26 51°28.739 3°3.903 256.1 0.2 196 25.8
2003-03-20 12:53:26 51°28.731 3°3.899 246 0.8 179 26
2003-03-20 12:54:26 51°28.721 3°3.899 247.8 0.6 199 25.9
2003-03-20 12:55:26 51°28.713 3°3.894 254.7 0.5 211 25.9
2003-03-20 12:56:26 51°28.709 3°3.884 265 0.4 255 25.9
2003-03-20 12:57:26 51°28.71 3°3.873 268.4 0.5 285 26
2003-03-20 12:58:26 51°28.711 3°3.862 264.1 0.3 271 26
2003-03-20 12:59:26 51°28.709 3°3.861 255.4 0.2 203 26.1
2003-03-20 13:00:26 51°28.704 3°3.862 246.6 0.3 168 26.1
2003-03-20 13:01:26 51°28.697 3°3.868 237.9 0.5 148 26
2003-03-20 13:02:26 51°28.687 3°3.879 228.4 0.8 145 26.1
2003-03-20 13:03:26 51°28.675 3°3.896 219.1 1 136 25.9
2003-03-20 13:04:26 51°28.662 3°3.917 209.7 1.2 129 25.9
2003-03-20 13:05:26 51°28.652 3°3.944 208.3 1.3 122 25.8
2003-03-20 13:06:26 51°28.642 3°3.974 210.2 1.2 116 25.6
2003-03-20 13:07:26 51°28.634 3°4.005 213.1 1.2 111 25.7
2003-03-20 13:08:26 51°28.625 3°4.032 218.8 1.1 127 25.6
2003-03-20 13:09:26 51°28.613 3°4.051 227.1 0.9 141 25.5
2003-03-20 13:10:26 51°28.602 3°4.061 237.1 0.6 160 25.5
2003-03-20 13:11:26 51°28.595 3°4.063 248.3 0.3 188 25.5
2003-03-20 13:12:26 51°28.593 3°4.062 260.1 0.2 294 25.5
2003-03-20 13:13:26 51°28.598 3°4.058 271.7 0.6 328 25.6
2003-03-20 13:14:26 51°28.608 3°4.049 282.1 0.8 339 25.5
2003-03-20 13:15:26 51°28.626 3°4.04 293.3 1.4 344 25.7
2003-03-20 13:16:26 51°28.65 3°4.04 305.7 1.6 359 25.7
2003-03-20 13:17:26 51°28.679 3°4.043 308.1 1.8 359 25.8
2003-03-20 13:18:26 51°28.696 3°3.987 255.8 3.6 259 26
2003-03-20 13:19:26 51°28.565 3°3.9 204.1 10.8 195 25.7
2003-03-20 13:20:26 51°28.371 3°3.804 209.8 12.5 202 24.9
2003-03-20 13:21:26 51°28.182 3°3.666 215.1 12.6 207 24.1
2003-03-20 13:22:26 51°27.996 3°3.521 215.3 12.6 207 23.2
2003-03-20 13:23:26 51°27.811 3°3.379 214.7 12.3 206 22
2003-03-20 13:24:26 51°27.626 3°3.236 213.9 12.4 206 20.6
2003-03-20 13:25:26 51°27.443 3°3.092 214.3 12.2 206 15.9
2003-03-20 13:26:26 51°27.263 3°2.954 214.2 11.8 206 14.9
2003-03-20 13:27:26 51°27.081 3°2.816 213.9 12.2 205 16.4
2003-03-20 13:28:26 51°26.898 3°2.677 213.9 12.2 205 16.3
2003-03-20 13:29:26 51°26.717 3°2.533 214.8 12.1 207 15.5
2003-03-20 13:30:26 51°26.536 3°2.396 214.1 11.9 207 14.4
2003-03-20 13:31:26 51°26.355 3°2.252 214.7 12.2 207 14.6
2003-03-20 13:32:26 51°26.174 3°2.11 214.4 12.2 206 12.2
2003-03-20 13:33:26 51°25.993 3°1.97 214.1 12.1 206 13.2
2003-03-20 13:34:26 51°25.811 3°1.828 214.7 12.2 205 13.8
2003-03-20 13:35:26 51°25.628 3°1.689 213.9 12.3 206 15
2003-03-20 13:36:26 51°25.444 3°1.548 215.2 12.3 206 15.9
2003-03-20 13:37:26 51°25.259 3°1.407 214.5 12.4 206 16.4
2003-03-20 13:38:26 51°25.074 3°1.266 214 12.2 205 17
2003-03-20 13:39:26 51°24.89 3°1.123 214.9 12.5 206 19.9
2003-03-20 13:40:26 51°24.703 3°0.977 214.5 12.5 207 21.7
2003-03-20 13:41:26 51°24.518 3°0.831 213 12.5 206 19.3
2003-03-20 13:42:26 51°24.327 3°0.699 210.4 12.4 203 19.3
2003-03-20 13:43:26 51°24.131 3°0.593 206.6 12.3 198 20
2003-03-20 13:44:26 51°23.93 3°0.51 195.8 12.7 187 21.1
2003-03-20 13:45:26 51°23.717 3°0.508 191.5 12.8 180 21.3
2003-03-20 13:46:26 51°23.509 3°0.475 209 12.2 199 20.8
2003-03-20 13:47:26 51°23.366 3°0.317 232 7.5 223 20.4
2003-03-20 13:48:26 51°23.333 3°0.211 254.5 3.8 252 20.4
2003-03-20 13:49:26 51°23.302 3°0.134 241.4 4.6 234 20.4
2003-03-20 13:50:26 51°23.264 3°0.041 236.2 3.2 227 20.4
2003-03-20 13:51:26 51°23.246 3°0.027 239.4 0.4 186 20.4
2003-03-20 13:52:26 51°23.249 3°0.041 250.4 0.8 54 20.2
2003-03-20 13:53:26 51°23.259 3°0.059 255 0.9 44 20.3
2003-03-20 13:54:26 51°23.269 3°0.068 254 0.6 20 20.2
2003-03-20 13:55:26 51°23.273 3°0.064 249.4 0.2 320 20.4
2003-03-20 13:56:26 51°23.275 3°0.064 245.8 0.2 43 20.3
2003-03-20 13:57:26 51°23.278 3°0.076 241.5 0.6 71 20.3
2003-03-20 13:58:26 51°23.279 3°0.088 238.4 0.3 124 20.4
2003-03-20 13:59:26 51°23.276 3°0.094 237.1 0.4 93 20.3
2003-03-20 14:00:26 51°23.278 3°0.11 239.9 0.7 69 20.2
2003-03-20 14:01:26 51°23.256 3°0.062 239.5 4.1 235 20.2
2003-03-20 14:02:26 51°23.23 2°59.985 254.7 1.3 265 20.3
2003-03-20 14:03:26 51°23.239 2°59.967 260.5 0.7 328 20.5
2003-03-20 14:04:26 51°23.245 2°59.97 240.5 0.4 56 20.5
2003-03-20 14:05:26 51°23.248 2°59.983 235.7 0.7 75 20.4
2003-03-20 14:06:26 51°23.255 3°0.006 238.7 0.7 73 20.4
2003-03-20 14:07:26 51°23.263 3°0.025 247.5 0.7 53 20.3
2003-03-20 14:08:26 51°23.265 3°0.039 231.3 0.7 89 20.3
2003-03-20 14:09:26 51°23.271 3°0.051 261 0.8 23 20.3
2003-03-20 14:10:26 51°23.292 3°0.058 295.4 1.9 14 20.4
2003-03-20 14:11:26 51°23.319 3°0.07 276 1.5 16 20.7
2003-03-20 14:12:26 51°23.334 3°0.083 240.7 0.8 53 20.7
2003-03-20 14:13:26 51°23.31 3°0.079 219.1 3.9 203 20.5
2003-03-20 14:14:26 51°23.257 3°0.011 241.5 3 234 20.3
2003-03-20 14:15:26 51°23.252 2°59.96 259.7 1.6 282 20.5
2003-03-20 14:16:26 51°23.265 2°59.933 268.4 1.2 325 20.7
2003-03-20 14:17:26 51°23.283 2°59.924 274.3 1.4 357 20.8
2003-03-20 14:18:26 51°23.307 2°59.93 277.1 1.4 13 21.1
2003-03-20 14:19:26 51°23.333 2°59.944 280.6 1.7 22 21.1
2003-03-20 14:20:26 51°23.36 2°59.963 287 1.8 23 21.3
2003-03-20 14:21:26 51°23.4 2°59.967 318.4 3.5 353 21.2
2003-03-20 14:22:26 51°23.475 3°0.001 17.1 5.1 30 21.3
2003-03-20 14:23:26 51°23.533 3°0.095 58.9 4.7 54 21.2
2003-03-20 14:24:26 51°23.565 3°0.197 87.8 4.1 68 21.2
2003-03-20 14:25:26 51°23.569 3°0.317 138.7 5.7 109 21.3
2003-03-20 14:26:26 51°23.456 3°0.424 175.9 11.1 162 20.6
2003-03-20 14:27:26 51°23.256 3°0.45 189.8 12.4 180 19.3
2003-03-20 14:28:26 51°23.06 3°0.373 213.2 11.9 205 18.2
2003-03-20 14:29:26 51°22.899 3°0.186 224.2 12.1 219 17.6
2003-03-20 14:30:26 51°22.741 2°59.994 223.1 11.9 218 17
2003-03-20 14:31:26 51°22.581 2°59.806 222.4 12.1 217 16.9
2003-03-20 14:32:26 51°22.418 2°59.614 222 12.2 216 16.6
2003-03-20 14:33:26 51°22.262 2°59.409 226.3 12 221 16.1
2003-03-20 14:34:26 51°22.11 2°59.202 226.2 12.1 221 15.9
2003-03-20 14:35:26 51°21.961 2°58.984 229.4 12.1 225 16
2003-03-20 14:36:26 51°21.836 2°58.735 236.8 12.1 233 16.1
2003-03-20 14:37:26 51°21.713 2°58.485 235.9 12 232 16.1
2003-03-20 14:38:26 51°21.59 2°58.235 235.1 12 231 16.1
2003-03-20 14:39:26 51°21.463 2°57.99 234.4 11.9 230 16.1
2003-03-20 14:40:26 51°21.337 2°57.745 234.8 11.9 231 16.1
2003-03-20 14:41:26 51°21.21 2°57.502 233.7 11.8 230 16.1
2003-03-20 14:42:26 51°21.084 2°57.258 234.5 12 230 16.1
2003-03-20 14:43:26 51°20.956 2°57.013 232.7 12.1 228 16
2003-03-20 14:44:26 51°20.819 2°56.778 230.8 12.1 227 15.9
2003-03-20 14:45:26 51°20.68 2°56.542 231.2 12.1 227 15.9
2003-03-20 14:46:26 51°20.541 2°56.309 231.5 12.2 227 15.9
2003-03-20 14:47:26 51°20.404 2°56.075 231.2 12.1 227 15.8
2003-03-20 14:48:26 51°20.266 2°55.837 231.9 12.2 227 15.8
2003-03-20 14:49:26 51°20.13 2°55.6 230.8 12.2 226 15.6
2003-03-20 14:50:26 51°19.992 2°55.364 229.2 12.2 225 15.6
2003-03-20 14:51:27 51°19.821 2°55.181 215 12.2 210 15.6
2003-03-20 14:52:26 51°19.645 2°55.024 215.1 12.4 211 15.3
2003-03-20 14:53:26 51°19.467 2°54.857 215.2 12.4 210 15.1
2003-03-20 14:54:26 51°19.29 2°54.687 215.7 12.4 211 14.9
2003-03-20 14:55:26 51°19.109 2°54.521 212.8 12.6 208 14.7
2003-03-20 14:56:26 51°18.925 2°54.375 211.7 12.3 206 14.4
2003-03-20 14:57:26 51°18.739 2°54.225 211.6 12.6 206 14.1
2003-03-20 14:58:26 51°18.554 2°54.073 211.7 12.5 207 13.7
2003-03-20 14:59:26 51°18.37 2°53.922 212.9 12.6 208 13.6
2003-03-20 15:00:26 51°18.183 2°53.78 207.5 12.4 203 13.3
2003-03-20 15:01:27 51°17.988 2°53.655 206.7 12.4 201 13
2003-03-20 15:02:26 51°17.798 2°53.536 206.9 12.8 201 12.9
2003-03-20 15:03:27 51°17.599 2°53.418 203.9 12.7 199 12.4
2003-03-20 15:04:26 51°17.4 2°53.331 199.9 12.6 194 12.1
2003-03-20 15:05:26 51°17.194 2°53.256 194.1 12.8 187 11.6
2003-03-20 15:06:26 51°16.981 2°53.234 187.2 12.8 180 10.9
2003-03-20 15:07:26 51°16.769 2°53.296 170.2 13.4 162 14.1
2003-03-20 15:08:27 51°16.562 2°53.448 165.5 13.4 155 14.9
2003-03-20 15:09:26 51°16.356 2°53.566 171.8 13.3 163 15
2003-03-20 15:10:26 51°16.15 2°53.67 170.2 13.3 161 14.7
2003-03-20 15:11:26 51°15.945 2°53.78 170.4 13.3 162 14.3
2003-03-20 15:12:26 51°15.735 2°53.896 170.3 13 161 13.7
2003-03-20 15:13:26 51°15.527 2°54.019 166.1 13.1 157 12.8
2003-03-20 15:14:26 51°15.323 2°54.16 164.5 13 156 12.1
2003-03-20 15:15:26 51°15.151 2°54.326 151.9 12.1 143 11.6
2003-03-20 15:16:26 51°15.002 2°54.536 150.9 11.3 140 11.3
2003-03-20 15:17:26 51°14.871 2°54.704 156 9.2 140 12
2003-03-20 15:18:26 51°14.776 2°54.803 164.6 5.9 147 12
2003-03-20 15:19:26 51°14.687 2°54.893 167.6 7.4 152 12.2
2003-03-20 15:20:26 51°14.53 2°54.972 177.1 10.7 168 12.3
2003-03-20 15:21:26 51°14.358 2°55.077 149.5 10.8 147 12.9
2003-03-20 15:22:26 51°14.253 2°55.274 135.5 9.2 132 9.7
2003-03-20 15:23:26 51°14.148 2°55.393 155.8 6.6 152 12.5
2003-03-20 15:24:26 51°14.059 2°55.459 159.1 5.4 156 12.4
2003-03-20 15:25:26 51°13.983 2°55.515 159.3 5.3 156 12.5
2003-03-20 15:26:26 51°13.893 2°55.582 158.6 6.3 155 12.5
2003-03-20 15:27:26 51°13.81 2°55.643 157.8 4.9 155 12.7
2003-03-20 15:28:27 51°13.749 2°55.7 145.6 3.8 145 12.3
2003-03-20 15:29:26 51°13.707 2°55.767 130 3.6 129 13.6
2003-03-20 15:30:27 51°13.672 2°55.847 128 3.7 124 12
2003-03-20 15:31:26 51°13.639 2°55.926 127.6 3.7 124 11.9
2003-03-20 15:32:26 51°13.613 2°56.012 113.2 3.6 111 12
2003-03-20 15:33:26 51°13.6 2°56.09 107.9 2.3 105 10.7
2003-03-20 15:34:26 51°13.598 2°56.103 111.7 0.3 112 10.6
2003-03-20 15:35:26 51°13.597 2°56.103 112.1 0.1 272 10.5
2003-03-20 15:36:26 51°13.598 2°56.1 113.5 0.4 104 10.5
2003-03-20 15:37:26 51°13.599 2°56.106 113.2 0.1 2 10.4
2003-03-20 15:38:26 51°13.598 2°56.106 121.5   22 10.2
2003-03-20 15:39:26 51°13.598 2°56.105 126.3   252 10.1
2003-03-20 15:40:26 51°13.599 2°56.105 126.5   201 10.2